Time;durP1;ratioP1;P1;durP2;ratioP2;P2;SDS_P1;SDS_P2;PMS_P1;PMS_P2;Temp;Humidity;BMP_temperature;BMP_pressure;BME280_temperature;BME280_humidity;BME280_pressure;Samples;Min_cycle;Max_cycle;Signal;HPM_P1;HPM_P2
2022/11/27 00:00:19;;;;;;;22.80;10.77;;;;;;;-148.88;100.00;77707.34;4994087;28;20481;-85
2022/11/27 00:02:44;;;;;;;27.20;12.00;;;;;;;-148.88;100.00;77707.34;4993655;28;20018;-86
2022/11/27 00:05:10;;;;;;;34.03;13.52;;;;;;;-148.88;100.00;77707.34;4997090;28;20030;-88
2022/11/27 00:07:35;;;;;;;29.85;12.20;;;;;;;-148.88;100.00;77707.34;4994991;28;20022;-86
2022/11/27 00:10:00;;;;;;;30.48;12.18;;;;;;;-148.88;100.00;77707.34;4992393;28;20121;-86
2022/11/27 00:12:26;;;;;;;31.73;13.05;;;;;;;-148.88;100.00;77707.34;4995444;28;20117;-85
2022/11/27 00:14:51;;;;;;;35.13;13.35;;;;;;;-148.88;100.00;77703.28;4993531;28;20121;-86
2022/11/27 00:17:16;;;;;;;28.60;13.05;;;;;;;-148.88;100.00;77711.41;4995736;28;20026;-87
2022/11/27 00:19:41;;;;;;;36.65;13.48;;;;;;;-148.88;100.00;77715.47;4993062;28;20026;-86
2022/11/27 00:22:07;;;;;;;31.40;13.40;;;;;;;-148.88;100.00;77707.34;4994595;28;20026;-85
2022/11/27 00:24:32;;;;;;;37.78;14.65;;;;;;;-148.88;100.00;77711.41;4994434;28;20205;-87
2022/11/27 00:28:00;;;;;;;32.70;13.52;;;;;;;-148.88;100.00;77711.41;5001522;28;20027;-84
2022/11/27 00:30:03;;;;;;;34.95;14.98;;;;;;;-148.88;100.00;77715.47;4999846;28;20034;-85
2022/11/27 00:32:28;;;;;;;35.85;14.73;;;;;;;-148.88;100.00;77707.34;5000581;28;20033;-87
2022/11/27 00:34:53;;;;;;;34.95;15.35;;;;;;;-148.88;100.00;77711.41;4996045;28;20034;-87
2022/11/27 00:37:19;;;;;;;33.90;14.75;;;;;;;-148.88;100.00;77715.47;4994223;28;20526;-87
2022/11/27 00:39:45;;;;;;;37.92;15.40;;;;;;;-148.88;100.00;77711.41;4994386;28;20025;-87
2022/11/27 00:42:11;;;;;;;36.95;17.35;;;;;;;-148.88;100.00;77711.41;4993138;28;20022;-87
2022/11/27 00:44:36;;;;;;;37.60;16.70;;;;;;;-148.88;100.00;77711.41;4993209;28;20022;-87
2022/11/27 00:47:01;;;;;;;41.33;16.48;;;;;;;-148.88;100.00;77713.44;4993365;28;20030;-87
2022/11/27 00:49:27;;;;;;;35.25;15.25;;;;;;;-148.88;100.00;77715.47;4993569;28;20065;-87
2022/11/27 00:51:52;;;;;;;40.78;15.55;;;;;;;-148.88;100.00;77715.47;4993818;28;20022;-87
2022/11/27 00:54:17;;;;;;;32.10;14.63;;;;;;;-148.88;100.00;77715.47;4993020;28;20018;-87
2022/11/27 00:56:43;;;;;;;38.20;15.88;;;;;;;-148.88;100.00;77717.50;4994270;28;20523;-87
2022/11/27 00:59:10;;;;;;;36.47;15.43;;;;;;;-148.88;100.00;77721.56;4993251;28;20025;-87
2022/11/27 01:01:40;;;;;;;33.78;14.98;;;;;;;-148.88;100.00;77719.53;4994088;28;20045;-87
2022/11/27 01:04:07;;;;;;;36.88;16.90;;;;;;;-148.88;100.00;77727.66;4993945;28;20503;-86
2022/11/27 01:06:32;;;;;;;39.65;17.35;;;;;;;-148.88;100.00;77717.50;4994247;28;20081;-87
2022/11/27 01:08:58;;;;;;;40.20;18.13;;;;;;;-148.88;100.00;77725.63;4992955;28;20022;-87
2022/11/27 01:11:26;;;;;;;38.30;16.98;;;;;;;-148.88;100.00;77721.56;4994045;28;20030;-86
2022/11/27 01:13:54;;;;;;;38.50;16.08;;;;;;;-148.88;100.00;77723.59;4993834;28;20081;-87
2022/11/27 01:16:21;;;;;;;44.65;16.83;;;;;;;-148.88;100.00;77727.66;4992394;28;20080;-87
2022/11/27 01:18:49;;;;;;;40.85;16.25;;;;;;;-148.88;100.00;77727.66;4993740;28;20022;-87
2022/11/27 01:21:17;;;;;;;33.05;16.10;;;;;;;-148.88;100.00;77719.53;4992305;28;20018;-87
2022/11/27 01:23:42;;;;;;;37.00;16.80;;;;;;;-148.88;100.00;77719.53;4994186;28;20022;-87
2022/11/27 01:26:09;;;;;;;28.13;13.20;;;;;;;-148.88;100.00;77721.56;5033874;23;20069;-83
2022/11/27 01:28:35;;;;;;;31.15;13.68;;;;;;;-148.88;100.00;77729.69;5019227;28;20030;-84
2022/11/27 01:31:18;;;;;;;26.33;13.15;;;;;;;-148.88;100.00;77731.72;5019118;28;20026;-82
2022/11/27 01:33:45;;;;;;;29.58;13.43;;;;;;;-148.88;100.00;77739.84;5015862;28;20022;-83
2022/11/27 01:36:12;;;;;;;28.85;14.30;;;;;;;-148.88;100.00;77739.84;5017532;28;20025;-84
2022/11/27 01:38:37;;;;;;;31.05;13.60;;;;;;;-148.88;100.00;77748.00;5018260;28;20029;-83
2022/11/27 01:41:12;;;;;;;28.08;12.75;;;;;;;-148.88;100.00;77748.00;5018634;28;20531;-83
2022/11/27 01:43:42;;;;;;;31.77;14.30;;;;;;;-148.88;100.00;77752.06;5018143;28;20395;-84
2022/11/27 01:46:23;;;;;;;28.17;13.02;;;;;;;-148.88;100.00;77768.31;5019142;28;20025;-83
2022/11/27 01:48:50;;;;;;;33.33;13.70;;;;;;;-148.88;100.00;77772.38;5020553;28;20037;-84
2022/11/27 01:51:16;;;;;;;26.63;12.35;;;;;;;-148.88;100.00;77772.38;5021269;28;20037;-84
2022/11/27 01:53:41;;;;;;;28.60;12.63;;;;;;;-148.88;100.00;77772.38;5019288;28;20026;-83
2022/11/27 01:56:08;;;;;;;31.17;13.55;;;;;;;-148.88;100.00;77776.44;5019215;28;20022;-83
2022/11/27 01:58:34;;;;;;;26.13;10.98;;;;;;;-148.88;100.00;77776.44;5020661;28;20022;-83
2022/11/27 02:01:00;;;;;;;30.02;12.93;;;;;;;-148.88;100.00;77780.50;5019107;28;20049;-83
2022/11/27 02:03:25;;;;;;;29.10;12.18;;;;;;;-148.88;100.00;77776.44;5019864;28;20052;-82
2022/11/27 02:05:50;;;;;;;33.65;14.07;;;;;;;-148.88;100.00;77786.59;5017176;28;20544;-83
2022/11/27 02:08:17;;;;;;;35.97;13.93;;;;;;;-148.88;100.00;77778.47;5015483;28;20105;-83
2022/11/27 02:10:48;;;;;;;27.30;11.63;;;;;;;-148.88;100.00;77780.50;5015448;28;20404;-83
2022/11/27 02:13:24;;;;;;;24.42;11.10;;;;;;;-148.88;100.00;77776.44;5016339;28;20022;-83
2022/11/27 02:16:16;;;;;;;23.80;10.70;;;;;;;-148.88;100.00;77770.34;5018091;28;20028;-82
2022/11/27 02:19:16;;;;;;;27.50;9.68;;;;;;;-148.88;100.00;77772.38;5018079;28;20026;-84
2022/11/27 02:21:58;;;;;;;20.10;8.88;;;;;;;-148.88;100.00;77776.44;5017498;28;20022;-84
2022/11/27 02:24:47;;;;;;;24.73;9.02;;;;;;;-148.88;100.00;77776.44;5018623;28;20029;-84
2022/11/27 02:27:38;;;;;;;23.00;9.27;;;;;;;-148.88;100.00;77786.59;5017930;28;20030;-83
2022/11/27 02:30:05;;;;;;;22.38;9.18;;;;;;;-148.88;100.00;77784.56;5019520;28;20032;-84
2022/11/27 02:32:57;;;;;;;17.90;8.95;;;;;;;-148.88;100.00;77776.44;5018186;28;20053;-83
2022/11/27 02:35:26;;;;;;;20.50;9.32;;;;;;;-148.88;100.00;77778.47;5020039;28;20029;-83
2022/11/27 02:38:05;;;;;;;21.85;9.40;;;;;;;-148.88;100.00;77774.41;5022323;28;20515;-84
2022/11/27 02:40:58;;;;;;;22.77;9.77;;;;;;;-148.88;100.00;77768.31;5019454;28;20026;-83
2022/11/27 02:43:45;;;;;;;20.90;9.60;;;;;;;-148.88;100.00;77754.09;5012985;28;20403;-82
2022/11/27 02:46:13;;;;;;;22.05;9.10;;;;;;;-148.88;100.00;77750.03;5019723;28;20022;-84
2022/11/27 02:48:51;;;;;;;19.23;8.20;;;;;;;-148.88;100.00;77748.00;5019927;28;20028;-82
2022/11/27 02:51:20;;;;;;;19.75;8.48;;;;;;;-148.88;100.00;77748.00;5021074;28;20500;-84
2022/11/27 02:53:51;;;;;;;19.17;8.35;;;;;;;-148.88;100.00;77743.94;5020736;28;20120;-83
2022/11/27 02:56:22;;;;;;;21.20;7.47;;;;;;;-148.88;100.00;77741.88;5021359;28;20018;-83
2022/11/27 02:58:50;;;;;;;17.77;7.40;;;;;;;-148.88;100.00;77743.94;5021402;28;20477;-82
2022/11/27 03:01:19;;;;;;;19.42;8.40;;;;;;;-148.88;100.00;77743.94;5023071;28;20501;-84
2022/11/27 03:03:48;;;;;;;18.10;8.45;;;;;;;-148.88;100.00;77748.00;5021470;28;20025;-83
2022/11/27 03:06:22;;;;;;;19.10;8.18;;;;;;;-148.88;100.00;77745.97;5022088;28;20088;-83
2022/11/27 03:09:02;;;;;;;15.65;7.50;;;;;;;-148.88;100.00;77748.00;5020618;28;20022;-83
2022/11/27 03:11:29;;;;;;;14.85;7.40;;;;;;;-148.88;100.00;77752.06;5020570;28;20026;-83
2022/11/27 03:14:00;;;;;;;23.98;8.93;;;;;;;-148.88;100.00;77760.19;5021976;28;20563;-83
2022/11/27 03:16:41;;;;;;;17.52;7.63;;;;;;;-148.88;100.00;77760.19;5018073;28;20022;-82
2022/11/27 03:19:19;;;;;;;20.23;8.63;;;;;;;-148.88;100.00;77766.28;5018942;28;20026;-82
2022/11/27 03:21:51;;;;;;;17.67;8.15;;;;;;;-148.88;100.00;77768.31;5020365;28;20053;-84
2022/11/27 03:24:17;;;;;;;26.70;8.25;;;;;;;-148.88;100.00;77762.22;5022549;28;20546;-84
2022/11/27 03:26:42;;;;;;;17.88;7.55;;;;;;;-148.88;100.00;77768.31;5020863;28;20116;-83
2022/11/27 03:29:21;;;;;;;15.23;7.40;;;;;;;-148.88;100.00;77770.34;5020871;28;20022;-84
2022/11/27 03:31:48;;;;;;;22.67;8.55;;;;;;;-148.88;100.00;77772.38;5020765;28;20021;-84
2022/11/27 03:34:15;;;;;;;22.83;8.27;;;;;;;-148.88;100.00;77776.44;5021703;28;20036;-83
2022/11/27 03:36:41;;;;;;;19.58;8.30;;;;;;;-148.88;100.00;77782.53;5020366;28;20026;-83
2022/11/27 03:39:06;;;;;;;22.45;9.02;;;;;;;-148.88;100.00;77784.56;5022377;28;20036;-84
2022/11/27 03:41:41;;;;;;;20.30;8.55;;;;;;;-148.88;100.00;77788.63;5023842;28;20506;-84
2022/11/27 03:44:31;;;;;;;17.83;8.23;;;;;;;-148.88;100.00;77792.69;5022952;28;20026;-84
2022/11/27 03:47:11;;;;;;;20.75;8.30;;;;;;;-148.88;100.00;77792.69;5022511;28;20072;-85
2022/11/27 03:49:45;;;;;;;23.17;9.88;;;;;;;-148.88;100.00;77794.72;5024006;28;20389;-85
2022/11/27 03:52:22;;;;;;;19.58;8.50;;;;;;;-148.88;100.00;77784.56;5016557;28;20026;-83
2022/11/27 03:55:25;;;;;;;20.13;8.85;;;;;;;-148.88;100.00;77776.44;5027627;28;20041;-82
2022/11/27 03:58:05;;;;;;;22.00;9.70;;;;;;;-148.88;100.00;77776.44;5038542;28;20025;-82
2022/11/27 04:00:35;;;;;;;19.70;8.23;;;;;;;-148.88;100.00;77770.34;5024492;28;20171;-84
2022/11/27 04:03:02;;;;;;;21.60;8.63;;;;;;;-148.88;100.00;77774.41;5018578;28;20030;-84
2022/11/27 04:05:28;;;;;;;24.45;9.25;;;;;;;-148.88;100.00;77774.41;5018634;28;20026;-82
2022/11/27 04:07:53;;;;;;;23.20;9.43;;;;;;;-148.88;100.00;77772.38;5016873;28;20040;-82
2022/11/27 04:10:18;;;;;;;24.27;10.43;;;;;;;-148.88;100.00;77776.44;5018931;28;20033;-82
2022/11/27 04:12:44;;;;;;;24.13;9.75;;;;;;;-148.88;100.00;77780.50;5016084;28;20087;-82
2022/11/27 04:15:09;;;;;;;23.58;10.38;;;;;;;-148.88;100.00;77784.56;5016047;28;20037;-81
2022/11/27 04:17:35;;;;;;;21.83;9.40;;;;;;;-148.88;100.00;77784.56;5019060;28;20392;-83
2022/11/27 04:20:01;;;;;;;31.40;11.27;;;;;;;-148.88;100.00;77772.38;5020075;28;20025;-83
2022/11/27 04:22:26;;;;;;;20.38;9.63;;;;;;;-148.88;100.00;77766.28;5017823;28;20124;-83
2022/11/27 04:24:51;;;;;;;22.08;9.43;;;;;;;-148.88;100.00;77768.31;5019348;28;20029;-82
2022/11/27 04:27:17;;;;;;;29.52;11.25;;;;;;;-148.88;100.00;77770.34;5022248;28;20033;-79
2022/11/27 04:29:43;;;;;;;24.27;10.80;;;;;;;-148.88;100.00;77768.31;5036640;28;20052;-80
2022/11/27 04:32:08;;;;;;;27.60;10.65;;;;;;;-148.88;100.00;77758.16;5034714;28;20021;-86
2022/11/27 04:34:34;;;;;;;26.50;10.45;;;;;;;-148.88;100.00;77758.16;5018726;28;20040;-83
2022/11/27 04:36:59;;;;;;;26.10;10.05;;;;;;;-148.88;100.00;77758.16;5017729;28;20025;-83
2022/11/27 04:39:25;;;;;;;28.00;10.25;;;;;;;-148.88;100.00;77758.16;5017514;28;20400;-85
2022/11/27 04:41:50;;;;;;;29.25;10.35;;;;;;;-148.88;100.00;77760.19;5018651;28;20033;-85
2022/11/27 04:44:16;;;;;;;26.38;10.30;;;;;;;-148.88;100.00;77768.31;5018757;28;20026;-85
2022/11/27 04:46:41;;;;;;;24.63;10.38;;;;;;;-148.88;100.00;77776.44;5015383;28;20022;-84
2022/11/27 04:49:08;;;;;;;24.60;11.25;;;;;;;-148.88;100.00;77784.56;5021578;28;20040;-86
2022/11/27 04:51:33;;;;;;;31.05;11.75;;;;;;;-148.88;100.00;77776.44;5015489;28;20025;-85
2022/11/27 04:53:59;;;;;;;25.35;10.55;;;;;;;-148.88;100.00;77776.44;5018064;28;20104;-84
2022/11/27 04:56:24;;;;;;;24.98;11.02;;;;;;;-148.88;100.00;77760.19;5016326;28;20112;-84
2022/11/27 04:58:49;;;;;;;24.67;9.57;;;;;;;-148.88;100.00;77756.13;5016352;28;20068;-83
2022/11/27 05:01:15;;;;;;;23.67;9.70;;;;;;;-148.88;100.00;77758.16;5016369;28;20029;-84
2022/11/27 05:03:40;;;;;;;25.00;10.20;;;;;;;-148.88;100.00;77756.13;5014436;28;20076;-84
2022/11/27 05:06:06;;;;;;;24.50;10.38;;;;;;;-148.88;100.00;77758.16;5017034;28;20022;-84
2022/11/27 05:08:32;;;;;;;24.08;9.93;;;;;;;-148.88;100.00;77754.09;5017861;28;20032;-84
2022/11/27 05:11:10;;;;;;;22.02;9.50;;;;;;;-148.88;100.00;77762.22;5016763;28;20108;-85
2022/11/27 05:13:36;;;;;;;23.33;9.80;;;;;;;-148.88;100.00;77766.28;5018478;28;20026;-84
2022/11/27 05:16:04;;;;;;;21.85;9.85;;;;;;;-148.88;100.00;77760.19;5017929;28;20484;-86
2022/11/27 05:18:30;;;;;;;23.40;10.50;;;;;;;-148.88;100.00;77754.09;5016785;28;20562;-85
2022/11/27 05:21:00;;;;;;;24.25;10.15;;;;;;;-148.88;100.00;77748.00;5017446;28;20034;-85
2022/11/27 05:23:26;;;;;;;26.58;11.85;;;;;;;-148.88;100.00;77752.06;5015855;28;20061;-85
2022/11/27 05:25:54;;;;;;;22.92;10.68;;;;;;;-148.88;100.00;77752.06;5016390;28;20041;-86
2022/11/27 05:28:21;;;;;;;27.77;10.23;;;;;;;-148.88;100.00;77743.94;5018231;28;20046;-83
2022/11/27 05:30:47;;;;;;;26.42;10.05;;;;;;;-148.88;100.00;77739.84;5014796;28;20075;-85
2022/11/27 05:33:13;;;;;;;25.15;10.93;;;;;;;-148.88;100.00;77733.75;5019962;28;20029;-84
2022/11/27 05:35:39;;;;;;;27.92;11.23;;;;;;;-148.88;100.00;77735.78;5019152;28;20450;-83
2022/11/27 05:38:05;;;;;;;30.27;10.32;;;;;;;-148.88;100.00;77731.72;5013932;28;20116;-84
2022/11/27 05:40:30;;;;;;;31.50;11.50;;;;;;;-148.88;100.00;77731.72;5015232;28;20022;-83
2022/11/27 05:42:56;;;;;;;28.17;12.02;;;;;;;-148.88;100.00;77719.53;5018157;28;20034;-83
2022/11/27 05:45:21;;;;;;;25.20;11.93;;;;;;;-148.88;100.00;77719.53;5016260;28;20096;-84
2022/11/27 05:47:47;;;;;;;29.98;11.43;;;;;;;-148.88;100.00;77723.59;5016092;28;20050;-84
2022/11/27 05:50:12;;;;;;;32.40;12.05;;;;;;;-148.88;100.00;77719.53;5017555;28;20026;-85
2022/11/27 05:52:37;;;;;;;27.38;10.27;;;;;;;-148.88;100.00;77723.59;5017486;28;20403;-84
2022/11/27 05:55:03;;;;;;;28.13;10.82;;;;;;;-148.88;100.00;77725.63;5021676;28;20085;-84
2022/11/27 05:57:29;;;;;;;25.85;10.77;;;;;;;-148.88;100.00;77731.72;5018657;28;20073;-84
2022/11/27 05:59:56;;;;;;;25.30;10.98;;;;;;;-148.88;100.00;77723.59;5017996;28;20022;-85
2022/11/27 06:02:22;;;;;;;24.73;10.75;;;;;;;-148.88;100.00;77725.63;5016232;28;20025;-84
2022/11/27 06:04:47;;;;;;;25.67;10.18;;;;;;;-148.88;100.00;77729.69;5015958;28;20021;-85
2022/11/27 06:07:13;;;;;;;28.75;11.50;;;;;;;-148.88;100.00;77731.72;5019310;28;20113;-84
2022/11/27 06:09:38;;;;;;;32.38;11.68;;;;;;;-148.88;100.00;77731.72;5024551;28;20026;-84
2022/11/27 06:12:03;;;;;;;23.10;10.02;;;;;;;-148.88;100.00;77741.88;5018243;28;20503;-82
2022/11/27 06:14:30;;;;;;;21.55;10.25;;;;;;;-148.88;100.00;77748.00;5018083;28;20025;-84
2022/11/27 06:16:56;;;;;;;23.27;9.68;;;;;;;-148.88;100.00;77745.97;5017153;28;20060;-83
2022/11/27 06:19:21;;;;;;;24.48;11.02;;;;;;;-148.88;100.00;77735.78;5016976;28;20072;-84
2022/11/27 06:21:47;;;;;;;27.45;11.90;;;;;;;-148.88;100.00;77731.72;5017415;28;20049;-83
2022/11/27 06:24:13;;;;;;;23.10;10.38;;;;;;;-148.88;100.00;77727.66;5017447;28;20026;-82
2022/11/27 06:26:38;;;;;;;27.05;10.93;;;;;;;-148.88;100.00;77731.72;5016939;28;20040;-84
2022/11/27 06:29:03;;;;;;;25.98;10.65;;;;;;;-148.88;100.00;77731.72;5017123;28;20443;-82
2022/11/27 06:31:31;;;;;;;24.02;10.32;;;;;;;-148.88;100.00;77721.56;5018914;28;20519;-84
2022/11/27 06:33:58;;;;;;;22.55;10.10;;;;;;;-148.88;100.00;77711.41;5019743;28;20026;-83
2022/11/27 06:36:27;;;;;;;23.38;8.80;;;;;;;-148.88;100.00;77707.34;5018039;28;20049;-84
2022/11/27 06:38:53;;;;;;;23.73;10.32;;;;;;;-148.88;100.00;77699.22;5019187;28;20032;-83
2022/11/27 06:41:21;;;;;;;19.25;8.98;;;;;;;-148.88;100.00;77691.09;5017476;28;20026;-83
2022/11/27 06:43:47;;;;;;;16.48;8.35;;;;;;;-148.88;100.00;77687.03;5018846;28;20022;-82
2022/11/27 06:46:16;;;;;;;23.88;9.75;;;;;;;-148.88;100.00;77678.91;5018745;28;20167;-83
2022/11/27 06:48:43;;;;;;;19.48;8.50;;;;;;;-148.88;100.00;77680.94;5017054;28;20075;-82
2022/11/27 06:51:11;;;;;;;20.15;8.45;;;;;;;-148.88;100.00;77676.88;5016386;28;20022;-83
2022/11/27 06:53:37;;;;;;;22.35;9.23;;;;;;;-148.88;100.00;77678.91;5017083;28;20026;-84
2022/11/27 06:56:04;;;;;;;20.35;7.78;;;;;;;-148.88;100.00;77670.75;5017431;28;20099;-84
2022/11/27 06:58:30;;;;;;;16.17;8.15;;;;;;;-148.88;100.00;77672.78;5018349;28;20025;-82
2022/11/27 07:00:57;;;;;;;19.10;7.85;;;;;;;-148.88;100.00;77672.78;5017958;28;20068;-83
2022/11/27 07:03:23;;;;;;;18.55;8.00;;;;;;;-148.88;100.00;77674.84;5018005;28;20085;-83
2022/11/27 07:05:48;;;;;;;20.75;7.85;;;;;;;-148.88;100.00;77670.75;5016455;28;20053;-83
2022/11/27 07:08:14;;;;;;;19.40;8.50;;;;;;;-148.88;100.00;77674.84;5016305;28;20026;-83
2022/11/27 07:10:39;;;;;;;20.95;8.90;;;;;;;-148.88;100.00;77674.84;5017705;28;20075;-83
2022/11/27 07:13:04;;;;;;;22.23;8.93;;;;;;;-148.88;100.00;77672.78;5017864;28;20036;-83
2022/11/27 07:15:31;;;;;;;21.10;8.10;;;;;;;-148.88;100.00;77674.84;5018089;28;20026;-83
2022/11/27 07:17:56;;;;;;;20.65;8.20;;;;;;;-148.88;100.00;77680.94;5016225;28;20121;-83
2022/11/27 07:20:22;;;;;;;21.83;8.88;;;;;;;-148.88;100.00;77672.78;5017477;28;20072;-82
2022/11/27 07:22:47;;;;;;;20.45;8.63;;;;;;;-148.88;100.00;77682.97;5016220;28;20034;-82
2022/11/27 07:25:12;;;;;;;18.33;7.90;;;;;;;-148.88;100.00;77682.97;5015039;28;20033;-83
2022/11/27 07:27:38;;;;;;;20.38;7.75;;;;;;;-148.88;100.00;77685.00;5015259;28;20511;-82
2022/11/27 07:30:12;;;;;;;16.77;8.15;;;;;;;-148.88;100.00;77674.84;5016419;28;20025;-82
2022/11/27 07:32:38;;;;;;;17.52;7.60;;;;;;;-148.88;100.00;77676.88;5016813;28;20053;-81
2022/11/27 07:35:04;;;;;;;21.90;8.68;;;;;;;-148.88;100.00;77672.78;5017230;28;20547;-84
2022/11/27 07:37:30;;;;;;;18.33;8.73;;;;;;;-148.88;100.00;77672.78;5016905;28;20465;-83
2022/11/27 07:39:55;;;;;;;20.60;7.68;;;;;;;-148.88;100.00;77662.63;5020231;28;20116;-84
2022/11/27 07:42:21;;;;;;;26.00;8.70;;;;;;;-148.88;100.00;77666.69;5017717;28;20057;-82
2022/11/27 07:44:49;;;;;;;17.13;8.38;;;;;;;-148.88;100.00;77662.63;5017396;28;20030;-81
2022/11/27 07:47:14;;;;;;;26.42;8.30;;;;;;;-148.88;100.00;77664.66;5017906;28;20053;-82
2022/11/27 07:49:42;;;;;;;18.92;8.43;;;;;;;-148.88;100.00;77656.53;5018874;28;20105;-84
2022/11/27 07:52:07;;;;;;;21.52;8.45;;;;;;;-148.88;100.00;77666.69;5017831;28;20399;-83
2022/11/27 07:54:36;;;;;;;19.85;8.48;;;;;;;-148.88;100.00;77658.56;5021043;28;20026;-84
2022/11/27 07:57:11;;;;;;;18.38;8.60;;;;;;;-148.88;100.00;77656.53;5026530;28;20054;-84
2022/11/27 08:00:30;;;;;;;16.45;8.02;;;;;;;-148.88;100.00;77654.50;5018571;28;20030;-81
2022/11/27 08:02:55;;;;;;;23.52;9.13;;;;;;;-148.88;100.00;77654.50;5034387;28;20064;-79
2022/11/27 08:05:23;;;;;;;19.30;8.50;;;;;;;-148.88;100.00;77642.31;5032913;28;20026;-82
2022/11/27 08:08:08;;;;;;;23.95;9.55;;;;;;;-148.88;100.00;77632.16;5018515;28;20018;-82
2022/11/27 08:10:35;;;;;;;17.98;8.35;;;;;;;-148.88;100.00;77626.06;5018871;28;20041;-82
2022/11/27 08:13:22;;;;;;;24.08;9.25;;;;;;;-148.88;100.00;77613.88;5023446;28;20040;-83
2022/11/27 08:16:37;;;;;;;23.90;8.02;;;;;;;-148.88;100.00;77593.53;5020920;28;20038;-81
2022/11/27 08:19:34;;;;;;;22.83;10.05;;;;;;;-148.88;100.00;77583.38;5026105;28;20034;-83
2022/11/27 08:22:36;;;;;;;20.52;8.60;;;;;;;-148.88;100.00;77565.09;5026066;28;20029;-82
2022/11/27 08:25:38;;;;;;;17.20;8.27;;;;;;;-148.88;100.00;77552.91;5023483;28;20065;-83
2022/11/27 08:31:27;;;;;;;20.67;8.02;;;;;;;-148.88;100.00;77532.59;5021716;28;20099;-84
2022/11/27 08:33:52;;;;;;;18.13;8.25;;;;;;;-148.88;100.00;77522.41;5027485;28;20033;-83
2022/11/27 08:36:18;;;;;;;17.63;8.13;;;;;;;-148.88;100.00;77514.28;5035372;28;20033;-82
2022/11/27 08:38:44;;;;;;;18.08;7.80;;;;;;;-148.88;100.00;77508.19;5034234;28;20030;-84
2022/11/27 08:41:27;;;;;;;14.82;7.45;;;;;;;-148.88;100.00;77491.94;5026737;28;20041;-84
2022/11/27 08:43:58;;;;;;;19.00;7.75;;;;;;;-148.88;100.00;77475.69;5024876;28;20034;-83
2022/11/27 08:46:26;;;;;;;19.60;7.93;;;;;;;-148.88;100.00;77467.56;5017002;28;20488;-83
2022/11/27 08:48:51;;;;;;;22.58;7.97;;;;;;;-148.88;100.00;77451.28;5016300;28;20053;-82
2022/11/27 08:51:17;;;;;;;18.67;7.68;;;;;;;-148.88;100.00;77443.16;5015188;28;20391;-83
2022/11/27 08:53:48;;;;;;;18.15;7.15;;;;;;;-148.88;100.00;77418.78;5019346;28;20022;-82
2022/11/27 08:56:21;;;;;;;20.98;7.75;;;;;;;-148.88;100.00;77394.41;5016478;28;20049;-83
2022/11/27 08:58:47;;;;;;;16.85;7.22;;;;;;;-148.88;100.00;77390.34;5016388;28;20026;-82
2022/11/27 09:01:39;;;;;;;13.40;6.57;;;;;;;-148.88;99.93;77380.19;5015352;28;20080;-84
2022/11/27 09:04:13;;;;;;;15.88;7.13;;;;;;;-148.88;99.90;77372.03;5016148;28;20050;-83
2022/11/27 09:07:05;;;;;;;16.23;7.25;;;;;;;-148.88;99.59;77367.97;5014182;28;20053;-82
2022/11/27 09:10:14;;;;;;;17.00;7.85;;;;;;;-148.88;99.84;77367.97;5016602;28;20030;-83
2022/11/27 09:12:39;;;;;;;15.20;6.45;;;;;;;-148.88;99.81;77361.88;5012751;28;20071;-83
2022/11/27 09:18:23;;;;;;;12.52;6.45;;;;;;;-148.88;98.99;77355.78;4975517;28;20511;-83
2022/11/27 09:21:29;;;;;;;15.63;6.78;;;;;;;-148.88;98.94;77353.75;4975012;28;20035;-83
2022/11/27 09:24:09;;;;;;;16.40;7.03;;;;;;;-148.88;99.14;77343.59;4963300;28;20045;-83
2022/11/27 09:27:12;;;;;;;13.32;6.45;;;;;;;-148.88;98.96;77337.50;4972970;28;20121;-83
2022/11/27 09:29:53;;;;;;;16.10;7.38;;;;;;;-148.88;98.38;77329.38;4958055;28;20031;-83
2022/11/27 09:35:36;;;;;;;14.93;6.47;;;;;;;-148.88;97.85;77298.91;4984198;28;20026;-82
2022/11/27 09:38:29;;;;;;;16.23;7.95;;;;;;;-148.88;98.22;77286.69;5013823;28;20038;-83
2022/11/27 09:41:28;;;;;;;14.27;7.10;;;;;;;-148.88;98.37;77292.81;5013761;28;20026;-84
2022/11/27 09:44:39;;;;;;;14.43;6.30;;;;;;;-148.88;97.92;77282.63;5018693;28;20054;-82
2022/11/27 09:47:43;;;;;;;14.13;6.03;;;;;;;-148.88;97.90;77274.50;4991917;28;20057;-83
2022/11/27 09:50:27;;;;;;;13.88;5.90;;;;;;;-148.88;96.87;77256.22;5019690;28;20022;-83
2022/11/27 09:53:18;;;;;;;14.10;5.95;;;;;;;-148.88;97.56;77252.16;5017389;28;20057;-83
2022/11/27 09:55:47;;;;;;;12.82;5.60;;;;;;;-148.88;97.25;77248.09;5008421;28;20033;-82
2022/11/27 09:58:36;;;;;;;12.43;5.60;;;;;;;-148.88;97.91;77231.84;5018480;28;20018;-82
2022/11/27 10:01:24;;;;;;;11.30;5.93;;;;;;;-148.88;97.33;77225.75;5018663;28;20021;-83
2022/11/27 10:03:50;;;;;;;15.63;6.18;;;;;;;-148.88;97.15;77215.59;5019722;28;20108;-82
2022/11/27 10:06:30;;;;;;;11.18;5.40;;;;;;;-148.88;96.55;77207.47;5018617;28;20049;-84
2022/11/27 10:09:13;;;;;;;12.45;6.47;;;;;;;-148.88;96.67;77199.31;5018783;28;20041;-82
2022/11/27 10:12:05;;;;;;;12.30;6.05;;;;;;;-148.88;97.53;77189.16;5020243;28;20072;-83
2022/11/27 10:14:48;;;;;;;12.07;6.10;;;;;;;-148.88;97.27;77187.13;5018876;28;20033;-82
2022/11/27 10:17:37;;;;;;;16.35;6.03;;;;;;;-148.88;97.37;77187.13;5018484;28;20026;-83
2022/11/27 10:20:15;;;;;;;10.63;5.85;;;;;;;-148.88;97.37;77179.00;5018153;28;20394;-83
2022/11/27 10:22:59;;;;;;;11.57;5.68;;;;;;;-148.88;97.28;77162.75;5018407;28;20041;-83
2022/11/27 10:25:41;;;;;;;9.50;4.65;;;;;;;-148.88;96.57;77166.81;5018296;28;20373;-82
2022/11/27 10:28:37;;;;;;;12.82;6.22;;;;;;;-148.88;96.86;77156.66;5017988;28;20029;-82
2022/11/27 10:31:10;;;;;;;15.45;5.75;;;;;;;-148.88;97.44;77146.50;5016836;28;20034;-82
2022/11/27 10:33:46;;;;;;;13.95;4.93;;;;;;;-148.88;97.03;77144.47;5019073;28;20042;-83
2022/11/27 10:36:28;;;;;;;12.25;5.55;;;;;;;-148.88;96.57;77136.34;5018476;28;20033;-82
2022/11/27 10:38:56;;;;;;;10.90;5.35;;;;;;;-148.88;96.71;77126.19;5017536;28;20117;-83
2022/11/27 10:41:39;;;;;;;13.35;5.95;;;;;;;-148.88;96.44;77114.00;5016633;28;20030;-82
2022/11/27 10:44:29;;;;;;;12.63;5.30;;;;;;;-148.88;96.43;77109.94;5018213;28;20104;-83
2022/11/27 10:47:01;;;;;;;8.90;5.10;;;;;;;-148.88;96.03;77097.72;5017211;28;20262;-82
2022/11/27 10:49:26;;;;;;;11.02;4.82;;;;;;;-148.88;95.47;77081.47;5017325;28;20030;-83
2022/11/27 10:51:52;;;;;;;9.43;4.93;;;;;;;-148.88;94.98;77065.22;5017669;28;20064;-83
2022/11/27 10:54:31;;;;;;;10.77;5.30;;;;;;;-148.88;93.99;77048.97;5015953;28;20029;-83
2022/11/27 10:57:24;;;;;;;12.48;5.05;;;;;;;-148.88;94.77;77036.78;5016395;28;20034;-83
2022/11/27 11:00:10;;;;;;;11.63;5.63;;;;;;;-148.88;94.79;77018.50;5016470;28;20026;-83
2022/11/27 11:02:38;;;;;;;14.70;5.45;;;;;;;-148.88;94.76;77012.41;5017330;28;20030;-83
2022/11/27 11:05:24;;;;;;;14.13;5.57;;;;;;;-148.88;93.87;77000.19;5016895;28;20567;-84
2022/11/27 11:08:03;;;;;;;9.32;4.55;;;;;;;-148.88;92.34;77000.19;5017110;28;20025;-83
2022/11/27 11:10:52;;;;;;;10.75;4.60;;;;;;;-148.88;93.28;76975.81;5016689;28;20417;-84
2022/11/27 11:13:28;;;;;;;8.65;4.75;;;;;;;-148.88;92.66;76963.63;5019108;28;20021;-84
2022/11/27 11:16:10;;;;;;;10.10;5.05;;;;;;;-148.88;91.88;76959.56;5021011;28;20026;-84
2022/11/27 11:18:51;;;;;;;9.10;5.05;;;;;;;-148.88;92.64;76957.53;5019829;28;20018;-85
2022/11/27 11:21:29;;;;;;;15.35;5.43;;;;;;;-148.88;92.51;76947.38;5018736;28;20014;-84
2022/11/27 11:24:08;;;;;;;10.60;4.45;;;;;;;-148.88;92.24;76939.25;5017993;28;20026;-85
2022/11/27 11:26:39;;;;;;;9.57;4.90;;;;;;;-148.88;93.46;76931.13;5019423;28;20022;-84
2022/11/27 11:29:32;;;;;;;9.80;4.93;;;;;;;-148.88;92.31;76920.97;5018110;28;20092;-83
2022/11/27 11:32:26;;;;;;;8.80;4.93;;;;;;;-148.88;92.12;76916.91;5018024;28;20045;-84